createdAt,value
2023-11-30T00:01:10.819Z,94944.91
2023-11-30T00:03:40.887Z,94942.86
2023-11-30T00:06:09.827Z,94950.77
2023-11-30T00:08:38.291Z,94952.10
2023-11-30T00:11:07.684Z,94957.35
2023-11-30T00:13:36.291Z,94956.22
2023-11-30T00:16:05.527Z,94956.88
2023-11-30T00:18:34.066Z,94962.29
2023-11-30T00:21:02.723Z,94965.80
2023-11-30T00:23:31.354Z,94965.45
2023-11-30T00:25:59.823Z,94972.23
2023-11-30T00:28:28.284Z,94974.06
2023-11-30T00:30:57.045Z,94980.77
2023-11-30T00:33:25.666Z,94981.98
2023-11-30T00:35:55.064Z,94987.73
2023-11-30T00:38:23.894Z,94986.80
2023-11-30T00:40:52.390Z,94987.22
2023-11-30T00:43:21.057Z,94988.83
2023-11-30T00:46:00.452Z,94989.80
2023-11-30T00:48:35.889Z,94987.40
2023-11-30T00:51:04.581Z,94994.75
2023-11-30T00:53:33.207Z,94994.11
2023-11-30T00:56:01.591Z,94988.36
2023-11-30T00:58:30.083Z,94988.98
2023-11-30T01:00:58.837Z,94991.56
2023-11-30T01:03:27.447Z,94995.27
2023-11-30T01:05:56.031Z,94995.02
2023-11-30T01:08:24.543Z,94994.73
2023-11-30T01:10:53.197Z,94992.31
2023-11-30T01:13:21.668Z,94988.36
2023-11-30T01:15:50.242Z,94990.23
2023-11-30T01:18:19.245Z,94991.81
2023-11-30T01:20:47.827Z,94993.21
2023-11-30T01:23:16.353Z,94990.52
2023-11-30T01:25:44.889Z,94994.02
2023-11-30T01:28:13.325Z,94988.02
2023-11-30T01:30:41.706Z,94988.39
2023-11-30T01:33:10.276Z,94989.16
2023-11-30T01:35:38.868Z,94985.48
2023-11-30T01:38:07.389Z,94988.11
2023-11-30T01:40:35.859Z,94990.02
2023-11-30T01:43:07.946Z,94990.80
2023-11-30T01:45:36.464Z,94999.77
2023-11-30T01:48:06.389Z,94996.67
2023-11-30T01:50:35.424Z,94990.00
2023-11-30T01:53:04.355Z,94993.02
2023-11-30T01:55:33.762Z,94996.59
2023-11-30T01:58:04.243Z,94995.10
2023-11-30T02:00:33.544Z,94991.90
2023-11-30T02:03:04.959Z,94995.14
2023-11-30T02:05:36.485Z,94994.10
2023-11-30T02:08:05.173Z,94996.11
2023-11-30T02:10:33.801Z,94998.10
2023-11-30T02:13:02.290Z,95001.05
2023-11-30T02:15:30.695Z,95002.04
2023-11-30T02:17:59.680Z,94998.64
2023-11-30T02:20:28.342Z,95000.90
2023-11-30T02:22:56.876Z,95008.01
2023-11-30T02:25:25.921Z,95011.82
2023-11-30T02:27:54.817Z,95015.51
2023-11-30T02:30:23.914Z,95012.75
2023-11-30T02:32:53.663Z,95014.33
2023-11-30T02:35:22.392Z,95012.33
2023-11-30T02:37:50.923Z,95018.92
2023-11-30T02:40:20.372Z,95027.54
2023-11-30T02:42:48.966Z,95030.33
2023-11-30T02:45:17.449Z,95028.03
2023-11-30T02:47:45.888Z,95021.14
2023-11-30T02:50:14.617Z,95016.27
2023-11-30T02:52:43.332Z,95015.61
2023-11-30T02:55:11.987Z,95020.06
2023-11-30T02:57:41.629Z,95021.29
2023-11-30T03:00:11.106Z,95024.96
2023-11-30T03:02:39.704Z,95023.94
2023-11-30T03:05:08.556Z,95022.61
2023-11-30T03:07:36.983Z,95020.83
2023-11-30T03:10:06.132Z,95023.16
2023-11-30T03:12:34.751Z,95024.02
2023-11-30T03:15:04.131Z,95029.46
2023-11-30T03:17:33.573Z,95024.73
2023-11-30T03:20:02.206Z,95023.95
2023-11-30T03:22:30.801Z,95024.93
2023-11-30T03:24:59.270Z,95023.20
2023-11-30T03:27:27.839Z,95025.20
2023-11-30T03:29:56.357Z,95025.71
2023-11-30T03:32:24.779Z,95018.89
2023-11-30T03:34:53.288Z,95019.73
2023-11-30T03:37:21.761Z,95020.11
2023-11-30T03:39:50.760Z,95021.09
2023-11-30T03:42:20.748Z,95023.66
2023-11-30T03:44:49.919Z,95022.85
2023-11-30T03:47:18.703Z,95023.66
2023-11-30T03:49:47.493Z,95031.52
2023-11-30T03:52:16.173Z,95033.03
2023-11-30T03:54:44.651Z,95038.64
2023-11-30T03:57:13.672Z,95042.91
2023-11-30T03:59:43.302Z,95043.20
2023-11-30T04:02:11.837Z,95044.33
2023-11-30T04:04:41.077Z,95041.89
2023-11-30T04:07:09.557Z,95044.27
2023-11-30T04:09:39.119Z,95048.56
2023-11-30T04:12:07.991Z,95047.20
2023-11-30T04:14:36.697Z,95049.34
2023-11-30T04:17:05.892Z,95051.89
2023-11-30T04:19:34.882Z,95053.01
2023-11-30T04:22:03.416Z,95057.43
2023-11-30T04:24:31.907Z,95055.70
2023-11-30T04:27:01.435Z,95055.88
2023-11-30T04:29:29.925Z,95051.80
2023-11-30T04:31:58.663Z,95055.71
2023-11-30T04:34:28.170Z,95058.08
2023-11-30T04:36:56.749Z,95057.88
2023-11-30T04:39:25.923Z,95054.65
2023-11-30T04:41:55.632Z,95057.30
2023-11-30T04:44:30.027Z,95060.30
2023-11-30T04:46:58.782Z,95063.52
2023-11-30T04:49:27.287Z,95066.86
2023-11-30T04:51:55.662Z,95061.93
2023-11-30T04:54:24.202Z,95064.39
2023-11-30T04:56:52.939Z,95068.96
2023-11-30T04:59:21.625Z,95074.95
2023-11-30T05:01:50.254Z,95079.31
2023-11-30T05:04:19.117Z,95075.23
2023-11-30T05:06:47.892Z,95074.91
2023-11-30T05:09:17.884Z,95073.34
2023-11-30T05:11:46.322Z,95069.21
2023-11-30T05:14:14.849Z,95070.11
2023-11-30T05:16:43.367Z,95072.65
2023-11-30T05:19:11.863Z,95076.98
2023-11-30T05:21:40.193Z,95081.17
2023-11-30T05:24:08.755Z,95083.27
2023-11-30T05:26:38.006Z,95082.85
2023-11-30T05:29:06.668Z,95085.00
2023-11-30T05:31:35.492Z,95084.99
2023-11-30T05:34:04.129Z,95087.98
2023-11-30T05:36:32.989Z,95082.25
2023-11-30T05:39:01.638Z,95091.91
2023-11-30T05:41:30.288Z,95096.31
2023-11-30T05:43:58.709Z,95097.27
2023-11-30T05:46:27.089Z,95101.10
2023-11-30T05:48:56.582Z,95100.06
2023-11-30T05:51:25.955Z,95105.84
2023-11-30T05:53:54.780Z,95106.42
2023-11-30T05:56:23.580Z,95109.31
2023-11-30T05:58:52.327Z,95114.77
2023-11-30T06:01:20.795Z,95111.56
2023-11-30T06:03:49.367Z,95112.36
2023-11-30T06:06:18.172Z,95113.29
2023-11-30T06:08:48.530Z,95119.56
2023-11-30T06:11:17.422Z,95125.96
2023-11-30T06:13:46.613Z,95128.85
2023-11-30T06:16:15.426Z,95131.47
2023-11-30T06:18:43.833Z,95133.76
2023-11-30T06:21:13.169Z,95125.28
2023-11-30T06:23:41.662Z,95124.06
2023-11-30T06:26:10.283Z,95129.29
2023-11-30T06:28:39.338Z,95135.50
2023-11-30T06:31:09.123Z,95140.13
2023-11-30T06:33:37.723Z,95136.98
2023-11-30T06:36:06.988Z,95126.71
2023-11-30T06:38:35.359Z,95123.35
2023-11-30T06:41:11.876Z,95120.09
2023-11-30T06:43:41.866Z,95112.94
2023-11-30T06:46:10.494Z,95104.13
2023-11-30T06:48:39.101Z,95099.61
2023-11-30T06:51:08.349Z,95102.61
2023-11-30T06:53:36.834Z,95101.82
2023-11-30T06:56:06.096Z,95106.10
2023-11-30T06:58:34.734Z,95108.36
2023-11-30T07:01:08.772Z,95108.25
2023-11-30T07:03:42.656Z,95106.83
2023-11-30T07:06:12.279Z,95109.40
2023-11-30T07:08:40.937Z,95116.07
2023-11-30T07:11:12.843Z,95111.05
2023-11-30T07:13:42.163Z,95102.49
2023-11-30T07:16:11.363Z,95101.00
2023-11-30T07:18:40.310Z,95097.69
2023-11-30T07:21:16.159Z,95100.64
2023-11-30T07:23:45.212Z,95095.13
2023-11-30T07:26:14.824Z,95092.48
2023-11-30T07:28:44.145Z,95087.75
2023-11-30T07:31:20.747Z,95084.88
2023-11-30T07:33:50.252Z,95082.19
2023-11-30T07:36:18.849Z,95088.98
2023-11-30T07:38:47.408Z,95094.74
2023-11-30T07:41:16.000Z,95095.91
2023-11-30T07:43:44.948Z,95099.59
2023-11-30T07:46:13.335Z,95098.45
2023-11-30T07:48:41.938Z,95095.66
2023-11-30T07:51:10.606Z,95092.25
2023-11-30T07:53:39.061Z,95083.95
2023-11-30T07:56:08.668Z,95088.64
2023-11-30T07:58:37.736Z,95086.50
2023-11-30T08:01:06.668Z,95074.19
2023-11-30T08:03:35.376Z,95070.36
2023-11-30T08:06:04.381Z,95070.16
2023-11-30T08:08:33.016Z,95064.98
2023-11-30T08:11:02.600Z,95064.09
2023-11-30T08:13:32.146Z,95063.36
2023-11-30T08:16:04.877Z,95061.11
2023-11-30T08:18:33.798Z,95066.32
2023-11-30T08:21:04.051Z,95063.52
2023-11-30T08:23:34.688Z,95059.75
2023-11-30T08:26:05.308Z,95056.18
2023-11-30T08:28:34.259Z,95061.73
2023-11-30T08:31:06.285Z,95059.83
2023-11-30T08:33:36.003Z,95059.02
2023-11-30T08:36:06.050Z,95056.77
2023-11-30T08:38:37.570Z,95050.79
2023-11-30T08:41:06.767Z,95047.77
2023-11-30T08:43:35.330Z,95056.58
2023-11-30T08:46:04.181Z,95058.64
2023-11-30T08:48:32.914Z,95045.40
2023-11-30T08:51:01.392Z,95034.23
2023-11-30T08:53:30.123Z,95026.58
2023-11-30T08:55:58.560Z,95022.10
2023-11-30T08:58:27.491Z,95022.15
2023-11-30T09:00:55.926Z,95020.69
2023-11-30T09:03:24.538Z,95016.50
2023-11-30T09:08:21.737Z,95015.77
2023-11-30T09:10:50.299Z,95016.58
2023-11-30T09:13:18.894Z,95017.11
2023-11-30T09:15:47.538Z,95010.80
2023-11-30T09:18:16.107Z,95007.27
2023-11-30T09:20:46.166Z,95000.98
2023-11-30T09:23:14.749Z,94995.66
2023-11-30T09:25:43.489Z,94984.06
2023-11-30T09:28:11.948Z,94985.45
2023-11-30T09:30:40.926Z,94990.30
2023-11-30T09:33:09.921Z,94987.30
2023-11-30T09:35:38.736Z,94986.20
2023-11-30T09:38:07.934Z,94976.61
2023-11-30T09:40:36.364Z,94972.71
2023-11-30T09:43:06.074Z,94967.79
2023-11-30T09:45:37.110Z,94957.28
2023-11-30T09:48:06.314Z,94961.20
2023-11-30T09:50:35.006Z,94961.84
2023-11-30T09:53:04.360Z,94957.35
2023-11-30T09:55:32.779Z,94951.56
2023-11-30T09:58:01.251Z,94950.61
2023-11-30T10:00:29.814Z,94941.29
2023-11-30T10:03:01.675Z,94943.43
2023-11-30T10:05:30.473Z,94930.43
2023-11-30T10:08:00.144Z,94917.55
2023-11-30T10:10:29.069Z,94918.73
2023-11-30T10:12:57.816Z,94913.05
2023-11-30T10:15:27.173Z,94915.23
2023-11-30T10:17:55.867Z,94916.27
2023-11-30T10:20:27.324Z,94916.66
2023-11-30T10:22:55.925Z,94917.50
2023-11-30T10:25:26.204Z,94911.89
2023-11-30T10:27:57.399Z,94909.23
2023-11-30T10:30:27.509Z,94903.16
2023-11-30T10:32:57.679Z,94897.24
2023-11-30T10:35:32.105Z,94890.30
2023-11-30T10:38:01.940Z,94892.21
2023-11-30T10:40:30.660Z,94888.04
2023-11-30T10:43:05.383Z,94877.40
2023-11-30T10:45:39.636Z,94873.08
2023-11-30T10:48:13.783Z,94862.50
2023-11-30T10:50:42.558Z,94852.23
2023-11-30T10:53:25.674Z,94847.96
2023-11-30T10:55:55.785Z,94843.84
2023-11-30T10:58:26.208Z,94827.74
2023-11-30T11:01:01.156Z,94830.38
2023-11-30T11:03:29.931Z,94832.29
2023-11-30T11:05:59.378Z,94832.88
2023-11-30T11:08:29.086Z,94831.86
2023-11-30T11:11:08.136Z,94827.70
2023-11-30T11:13:47.608Z,94830.89
2023-11-30T11:16:16.516Z,94832.70
2023-11-30T11:18:45.688Z,94836.88
2023-11-30T11:21:27.612Z,94830.23
2023-11-30T11:24:04.768Z,94833.73
2023-11-30T11:26:42.494Z,94836.39
2023-11-30T11:29:15.376Z,94826.29
2023-11-30T11:31:45.466Z,94829.02
2023-11-30T11:34:15.604Z,94830.13
2023-11-30T11:36:44.755Z,94825.79
2023-11-30T11:39:14.700Z,94811.52
2023-11-30T11:41:43.645Z,94808.80
2023-11-30T11:44:12.455Z,94798.94
2023-11-30T11:46:41.412Z,94809.42
2023-11-30T11:49:10.048Z,94811.00
2023-11-30T11:51:46.862Z,94805.37
2023-11-30T11:54:20.338Z,94800.07
2023-11-30T11:56:50.975Z,94792.16
2023-11-30T11:59:24.415Z,94774.51
2023-11-30T12:01:55.281Z,94765.10
2023-11-30T12:04:35.274Z,94763.63
2023-11-30T12:07:17.818Z,94754.22
2023-11-30T12:09:58.009Z,94748.70
2023-11-30T12:12:36.486Z,94739.59
2023-11-30T12:15:06.029Z,94735.23
2023-11-30T12:17:34.873Z,94733.90
2023-11-30T12:20:03.558Z,94733.73
2023-11-30T12:22:32.021Z,94740.19
2023-11-30T12:25:01.744Z,94744.00
2023-11-30T12:27:30.508Z,94745.80
2023-11-30T12:29:59.262Z,94753.27
2023-11-30T12:32:28.015Z,94753.02
2023-11-30T12:34:58.467Z,94755.81
2023-11-30T12:37:27.826Z,94757.04
2023-11-30T12:39:56.481Z,94765.69
2023-11-30T12:42:25.712Z,94764.16
2023-11-30T12:44:54.428Z,94765.17
2023-11-30T12:47:24.514Z,94754.23
2023-11-30T12:49:53.056Z,94747.70
2023-11-30T12:52:22.395Z,94735.30
2023-11-30T12:54:52.313Z,94722.36
2023-11-30T12:57:21.295Z,94718.05
2023-11-30T12:59:50.128Z,94721.48
2023-11-30T13:02:19.247Z,94717.75
2023-11-30T13:04:48.247Z,94718.52
2023-11-30T13:07:17.733Z,94713.67
2023-11-30T13:09:46.778Z,94717.95
2023-11-30T13:12:15.577Z,94705.84
2023-11-30T13:14:45.060Z,94701.76
2023-11-30T13:17:15.631Z,94697.98
2023-11-30T13:19:46.410Z,94695.11
2023-11-30T13:22:15.248Z,94697.60
2023-11-30T13:24:44.641Z,94702.35
2023-11-30T13:27:13.421Z,94705.58
2023-11-30T13:29:41.973Z,94706.42
2023-11-30T13:34:44.115Z,94688.35
2023-11-30T13:37:13.757Z,94681.89
2023-11-30T13:39:42.346Z,94684.98
2023-11-30T13:42:11.175Z,94688.29
2023-11-30T13:44:40.451Z,94692.81
2023-11-30T13:47:09.676Z,94685.84
2023-11-30T13:49:38.528Z,94681.61
2023-11-30T13:52:08.698Z,94670.09
2023-11-30T13:54:37.389Z,94661.16
2023-11-30T13:57:08.311Z,94663.00
2023-11-30T13:59:37.149Z,94666.25
2023-11-30T14:02:06.404Z,94665.38
2023-11-30T14:04:35.087Z,94665.52
2023-11-30T14:07:05.356Z,94666.60
2023-11-30T14:09:34.049Z,94672.11
2023-11-30T14:12:02.614Z,94673.62
2023-11-30T14:14:31.251Z,94669.72
2023-11-30T14:16:59.702Z,94666.45
2023-11-30T14:19:28.363Z,94664.30
2023-11-30T14:21:56.902Z,94667.52
2023-11-30T14:24:25.455Z,94658.46
2023-11-30T14:26:54.125Z,94659.98
2023-11-30T14:29:23.893Z,94668.08
2023-11-30T14:31:52.863Z,94668.80
2023-11-30T14:34:21.700Z,94660.27
2023-11-30T14:36:53.395Z,94655.44
2023-11-30T14:39:28.570Z,94653.55
2023-11-30T14:41:57.895Z,94648.21
2023-11-30T14:44:27.109Z,94651.38
2023-11-30T14:46:55.996Z,94655.68
2023-11-30T14:49:24.613Z,94649.51
2023-11-30T14:51:53.317Z,94649.45
2023-11-30T14:54:21.977Z,94648.23
2023-11-30T14:56:51.997Z,94647.88
2023-11-30T14:59:20.608Z,94645.05
2023-11-30T15:01:49.251Z,94647.95
2023-11-30T15:04:18.283Z,94647.16
2023-11-30T15:06:47.144Z,94643.97
2023-11-30T15:09:16.610Z,94636.52
2023-11-30T15:11:45.400Z,94631.73
2023-11-30T15:14:14.006Z,94624.08
2023-11-30T15:16:42.720Z,94622.43
2023-11-30T15:19:11.456Z,94615.07
2023-11-30T15:21:39.901Z,94614.85
2023-11-30T15:24:08.765Z,94612.29
2023-11-30T15:26:37.287Z,94613.98
2023-11-30T15:29:05.944Z,94613.27
2023-11-30T15:31:34.444Z,94611.39
2023-11-30T15:34:03.468Z,94609.47
2023-11-30T15:36:32.776Z,94606.95
2023-11-30T15:39:12.567Z,94606.15
2023-11-30T15:41:43.996Z,94602.67
2023-11-30T15:44:12.941Z,94606.02
2023-11-30T15:46:44.833Z,94596.19
2023-11-30T15:49:13.794Z,94597.30
2023-11-30T15:51:47.618Z,94599.79
2023-11-30T15:54:16.321Z,94599.77
2023-11-30T15:56:45.322Z,94602.67
2023-11-30T15:59:13.903Z,94592.44
2023-11-30T16:01:45.276Z,94583.79
2023-11-30T16:04:14.119Z,94584.80
2023-11-30T16:06:43.372Z,94587.98
2023-11-30T16:09:13.348Z,94592.71
2023-11-30T16:11:42.912Z,94585.05
2023-11-30T16:14:11.540Z,94585.38
2023-11-30T16:16:46.148Z,94586.30
2023-11-30T16:19:14.766Z,94573.10
2023-11-30T16:21:43.438Z,94573.60
2023-11-30T16:24:12.070Z,94575.17
2023-11-30T16:26:40.756Z,94575.52
2023-11-30T16:29:09.333Z,94570.42
2023-11-30T16:31:38.014Z,94568.08
2023-11-30T16:34:06.743Z,94567.28
2023-11-30T16:36:35.422Z,94559.94
2023-11-30T16:39:05.046Z,94559.32
2023-11-30T16:41:34.398Z,94559.60
2023-11-30T16:44:03.083Z,94559.34
2023-11-30T16:46:32.406Z,94557.04
2023-11-30T16:49:01.179Z,94555.04
2023-11-30T16:51:30.288Z,94547.17
2023-11-30T16:53:58.768Z,94546.40
2023-11-30T16:56:29.266Z,94538.81
2023-11-30T16:58:58.210Z,94524.83
2023-11-30T17:01:30.953Z,94522.03
2023-11-30T17:03:59.787Z,94521.06
2023-11-30T17:06:28.753Z,94518.27
2023-11-30T17:08:58.226Z,94520.26
2023-11-30T17:11:29.680Z,94518.64
2023-11-30T17:13:58.348Z,94512.52
2023-11-30T17:16:26.959Z,94507.00
2023-11-30T17:18:55.757Z,94505.44
2023-11-30T17:21:25.144Z,94505.44
2023-11-30T17:23:53.791Z,94508.52
2023-11-30T17:26:23.112Z,94497.66
2023-11-30T17:28:51.743Z,94503.11
2023-11-30T17:31:20.485Z,94489.68
2023-11-30T17:33:50.329Z,94495.51
2023-11-30T17:36:19.145Z,94493.85
2023-11-30T17:38:47.818Z,94489.12
2023-11-30T17:41:16.407Z,94489.64
2023-11-30T17:43:44.989Z,94486.16
2023-11-30T17:46:13.724Z,94479.20
2023-11-30T17:48:42.304Z,94488.33
2023-11-30T17:51:12.878Z,94487.84
2023-11-30T17:53:41.518Z,94482.85
2023-11-30T17:56:10.504Z,94484.01
2023-11-30T17:58:39.087Z,94486.14
2023-11-30T18:01:08.124Z,94489.86
2023-11-30T18:03:36.900Z,94491.57
2023-11-30T18:06:07.352Z,94489.90
2023-11-30T18:08:36.491Z,94496.30
2023-11-30T18:11:07.785Z,94494.66
2023-11-30T18:13:36.524Z,94490.89
2023-11-30T18:16:05.503Z,94488.30
2023-11-30T18:18:34.200Z,94483.53
2023-11-30T18:21:02.728Z,94488.06
2023-11-30T18:23:31.263Z,94480.75
2023-11-30T18:25:59.790Z,94484.52
2023-11-30T18:28:28.327Z,94484.45
2023-11-30T18:31:01.778Z,94477.35
2023-11-30T18:33:37.877Z,94470.23
2023-11-30T18:36:08.726Z,94461.11
2023-11-30T18:38:44.024Z,94457.39
2023-11-30T18:41:20.676Z,94455.33
2023-11-30T18:43:50.726Z,94455.75
2023-11-30T18:46:20.052Z,94449.75
2023-11-30T18:48:48.780Z,94455.10
2023-11-30T18:51:17.369Z,94447.90
2023-11-30T18:53:46.048Z,94445.79
2023-11-30T18:56:14.631Z,94441.99
2023-11-30T18:58:43.621Z,94440.54
2023-11-30T19:01:15.250Z,94437.36
2023-11-30T19:03:44.229Z,94438.47
2023-11-30T19:06:17.690Z,94435.93
2023-11-30T19:08:47.522Z,94433.87
2023-11-30T19:11:17.467Z,94431.90
2023-11-30T19:13:46.286Z,94432.81
2023-11-30T19:16:20.345Z,94427.09
2023-11-30T19:18:50.290Z,94423.86
2023-11-30T19:21:19.689Z,94422.27
2023-11-30T19:23:48.393Z,94413.41
2023-11-30T19:26:18.818Z,94414.77
2023-11-30T19:28:47.547Z,94411.16
2023-11-30T19:31:16.970Z,94404.64
2023-11-30T19:33:46.483Z,94406.39
2023-11-30T19:36:15.092Z,94403.33
2023-11-30T19:38:43.674Z,94393.38
2023-11-30T19:41:12.881Z,94389.16
2023-11-30T19:43:41.578Z,94390.52
2023-11-30T19:46:16.444Z,94389.33
2023-11-30T19:48:48.068Z,94389.30
2023-11-30T19:51:20.361Z,94387.34
2023-11-30T19:53:49.603Z,94381.79
2023-11-30T19:56:18.303Z,94378.36
2023-11-30T19:58:47.074Z,94383.66
2023-11-30T20:01:22.694Z,94377.88
2023-11-30T20:03:51.564Z,94370.70
2023-11-30T20:06:22.881Z,94365.88
2023-11-30T20:08:53.804Z,94360.23
2023-11-30T20:11:23.708Z,94352.64
2023-11-30T20:13:52.343Z,94350.10
2023-11-30T20:16:20.991Z,94343.63
2023-11-30T20:18:50.361Z,94344.77
2023-11-30T20:21:22.709Z,94340.51
2023-11-30T20:23:51.480Z,94339.98
2023-11-30T20:26:20.176Z,94336.63
2023-11-30T20:28:49.074Z,94345.67
2023-11-30T20:31:17.911Z,94336.87
2023-11-30T20:33:47.485Z,94332.75
2023-11-30T20:36:16.703Z,94333.59
2023-11-30T20:38:45.389Z,94332.20
2023-11-30T20:41:13.872Z,94325.70
2023-11-30T20:43:42.504Z,94325.08
2023-11-30T20:46:11.722Z,94319.97
2023-11-30T20:48:40.391Z,94309.35
2023-11-30T20:51:10.310Z,94301.44
2023-11-30T20:53:39.046Z,94293.92
2023-11-30T20:56:08.339Z,94298.14
2023-11-30T20:58:38.144Z,94296.06
2023-11-30T21:01:07.325Z,94288.12
2023-11-30T21:03:36.201Z,94284.56
2023-11-30T21:06:05.632Z,94282.62
2023-11-30T21:08:34.262Z,94282.05
2023-11-30T21:11:03.355Z,94281.55
2023-11-30T21:13:33.433Z,94284.67
2023-11-30T21:16:02.562Z,94286.49
2023-11-30T21:18:31.316Z,94284.65
2023-11-30T21:20:59.993Z,94279.72
2023-11-30T21:23:28.626Z,94280.16
2023-11-30T21:25:57.357Z,94278.25
2023-11-30T21:28:25.989Z,94273.09
2023-11-30T21:30:54.670Z,94267.59
2023-11-30T21:33:23.589Z,94257.56
2023-11-30T21:35:52.880Z,94256.66
2023-11-30T21:38:21.416Z,94250.98
2023-11-30T21:40:50.754Z,94254.71
2023-11-30T21:43:19.800Z,94247.04
2023-11-30T21:45:48.596Z,94238.86
2023-11-30T21:48:17.560Z,94242.67
2023-11-30T21:50:46.225Z,94234.80
2023-11-30T21:53:14.861Z,94233.52
2023-11-30T21:55:43.530Z,94234.63
2023-11-30T21:58:13.194Z,94226.78
2023-11-30T22:00:42.004Z,94230.10
2023-11-30T22:03:11.069Z,94224.60
2023-11-30T22:05:40.683Z,94222.98
2023-11-30T22:08:10.299Z,94211.18
2023-11-30T22:10:38.859Z,94206.75
2023-11-30T22:13:09.540Z,94210.62
2023-11-30T22:15:38.613Z,94210.11
2023-11-30T22:18:07.186Z,94210.54
2023-11-30T22:20:35.889Z,94213.83
2023-11-30T22:23:04.840Z,94201.17
2023-11-30T22:25:33.322Z,94199.56
2023-11-30T22:28:02.455Z,94200.23
2023-11-30T22:30:31.349Z,94199.46
2023-11-30T22:33:00.257Z,94201.20
2023-11-30T22:35:29.473Z,94198.31
2023-11-30T22:37:58.443Z,94199.35
2023-11-30T22:40:27.863Z,94190.44
2023-11-30T22:42:56.617Z,94180.38
2023-11-30T22:45:25.265Z,94172.23
2023-11-30T22:47:53.917Z,94168.23
2023-11-30T22:50:22.706Z,94168.98
2023-11-30T22:52:52.115Z,94163.73
2023-11-30T22:55:22.584Z,94156.85
2023-11-30T22:57:51.480Z,94154.73
2023-11-30T23:00:25.646Z,94142.85
2023-11-30T23:02:55.176Z,94131.71
2023-11-30T23:05:24.945Z,94130.22
2023-11-30T23:07:53.575Z,94131.77
2023-11-30T23:10:22.171Z,94128.40
2023-11-30T23:12:51.723Z,94127.11
2023-11-30T23:15:22.238Z,94126.17
2023-11-30T23:17:51.051Z,94115.45
2023-11-30T23:20:19.710Z,94110.81
2023-11-30T23:22:49.206Z,94110.05
2023-11-30T23:25:17.891Z,94110.58
2023-11-30T23:27:46.484Z,94108.09
2023-11-30T23:30:15.259Z,94107.59
2023-11-30T23:32:45.584Z,94106.35
2023-11-30T23:35:14.112Z,94101.27
2023-11-30T23:37:42.649Z,94107.73
2023-11-30T23:40:12.134Z,94104.77
2023-11-30T23:42:41.207Z,94109.94
2023-11-30T23:45:11.211Z,94096.49
2023-11-30T23:47:39.908Z,94096.68
2023-11-30T23:50:09.048Z,94104.63
2023-11-30T23:52:39.256Z,94106.31
2023-11-30T23:55:08.086Z,94103.48
2023-11-30T23:57:37.370Z,94102.48
